Time;durP1;ratioP1;P1;durP2;ratioP2;P2;SDS_P1;SDS_P2;PMS_P1;PMS_P2;Temp;Humidity;BMP_temperature;BMP_pressure;BME280_temperature;BME280_humidity;BME280_pressure;Samples;Min_cycle;Max_cycle;Signal;HPM_P1;HPM_P2
2022/05/09 00:02:08;;;;;;;9.33;3.03;;;10.60;93.30;;;;;;4925071;29;20217;-75
2022/05/09 00:04:34;;;;;;;9.17;3.37;;;10.60;93.70;;;;;;4926752;29;20235;-76
2022/05/09 00:07:00;;;;;;;9.20;3.47;;;10.50;94.10;;;;;;4925006;29;20820;-71
2022/05/09 00:09:25;;;;;;;7.00;2.40;;;10.50;94.60;;;;;;4927157;29;20591;-75
2022/05/09 00:11:51;;;;;;;9.50;2.83;;;10.50;94.80;;;;;;4920581;29;20211;-72
2022/05/09 00:14:17;;;;;;;5.40;3.43;;;10.40;95.30;;;;;;4921306;29;20230;-75
2022/05/09 00:16:42;;;;;;;6.43;2.23;;;10.40;95.80;;;;;;4923994;29;20205;-80
2022/05/09 00:19:09;;;;;;;6.37;2.50;;;10.40;96.10;;;;;;4926613;29;20263;-75
2022/05/09 00:21:37;;;;;;;10.77;3.10;;;10.30;96.40;;;;;;4924570;29;20238;-73
2022/05/09 00:24:04;;;;;;;12.10;3.50;;;10.30;97.00;;;;;;4927155;29;20191;-77
2022/05/09 00:26:31;;;;;;;11.00;2.73;;;10.20;97.50;;;;;;4927722;29;20210;-78
2022/05/09 00:29:02;;;;;;;12.20;3.17;;;10.20;97.70;;;;;;4930565;29;20432;-76
2022/05/09 00:31:28;;;;;;;9.40;4.10;;;10.10;98.30;;;;;;4928396;29;20226;-74
2022/05/09 00:33:55;;;;;;;12.23;3.33;;;10.10;98.80;;;;;;4930469;29;20545;-73
2022/05/09 00:36:21;;;;;;;8.37;3.07;;;10.00;99.20;;;;;;4927793;29;20322;-73
2022/05/09 00:38:49;;;;;;;12.20;3.10;;;10.00;99.40;;;;;;4929972;29;20212;-73
2022/05/09 00:44:10;;;;;;;7.83;3.30;;;9.90;99.90;;;;;;4920180;29;20200;-74
2022/05/09 00:46:38;;;;;;;9.83;4.27;;;9.90;99.90;;;;;;4923278;29;21004;-70
2022/05/09 00:49:19;;;;;;;7.33;3.20;;;9.90;99.90;;;;;;4930090;29;20614;-71
2022/05/09 00:52:02;;;;;;;13.30;3.43;;;9.80;99.90;;;;;;4924229;29;20661;-71
2022/05/09 00:54:33;;;;;;;7.87;3.97;;;9.80;99.90;;;;;;4920658;29;20683;-71
2022/05/09 00:57:07;;;;;;;8.07;3.30;;;9.80;99.90;;;;;;4928681;29;20213;-71
2022/05/09 00:59:35;;;;;;;7.13;2.93;;;9.70;99.90;;;;;;4924976;29;20229;-71
2022/05/09 01:02:01;;;;;;;11.53;3.67;;;9.70;99.90;;;;;;4928400;29;20227;-70
2022/05/09 01:04:29;;;;;;;4.23;2.73;;;9.60;99.90;;;;;;4929508;29;20192;-70
2022/05/09 01:06:57;;;;;;;7.67;2.90;;;9.60;99.90;;;;;;4927627;29;20203;-70
2022/05/09 01:09:22;;;;;;;7.73;3.10;;;9.50;99.90;;;;;;4929327;29;20197;-69
2022/05/09 01:11:49;;;;;;;12.60;2.73;;;9.50;99.90;;;;;;4928135;29;20291;-70
2022/05/09 01:14:21;;;;;;;8.93;3.40;;;9.50;99.90;;;;;;4929944;29;20208;-70
2022/05/09 01:16:47;;;;;;;7.53;2.87;;;9.50;99.90;;;;;;4923821;29;20207;-69
2022/05/09 01:19:30;;;;;;;8.93;2.97;;;9.50;99.90;;;;;;4929389;29;20190;-70
2022/05/09 01:21:58;;;;;;;7.90;3.23;;;9.40;99.90;;;;;;4925332;29;20709;-70
2022/05/09 01:24:25;;;;;;;8.70;2.77;;;9.40;99.90;;;;;;4928657;29;20663;-70
2022/05/09 01:26:52;;;;;;;9.70;2.97;;;9.40;99.90;;;;;;4927078;29;20234;-70
2022/05/09 01:29:29;;;;;;;8.13;3.20;;;9.40;99.90;;;;;;4919066;29;20245;-72
2022/05/09 01:31:56;;;;;;;7.83;3.23;;;9.40;99.90;;;;;;4925134;29;20207;-73
2022/05/09 01:34:22;;;;;;;10.07;2.93;;;9.40;99.90;;;;;;4928006;29;20694;-72
2022/05/09 01:36:51;;;;;;;8.87;3.97;;;9.30;99.90;;;;;;4927360;29;20215;-72
2022/05/09 01:39:17;;;;;;;4.97;2.97;;;9.30;99.90;;;;;;4925234;29;20577;-70
2022/05/09 01:41:45;;;;;;;12.63;3.53;;;9.30;99.90;;;;;;4926572;29;20225;-72
2022/05/09 01:44:13;;;;;;;4.30;2.77;;;9.30;99.90;;;;;;4929017;29;20283;-72
2022/05/09 01:49:31;;;;;;;10.57;3.47;;;9.20;99.90;;;;;;4918273;29;20200;-70
2022/05/09 01:51:59;;;;;;;8.43;3.93;;;9.20;99.90;;;;;;4925130;29;20303;-70
2022/05/09 01:54:24;;;;;;;8.00;3.73;;;9.20;99.90;;;;;;4928317;29;20303;-71
2022/05/09 01:56:50;;;;;;;8.40;3.33;;;9.20;99.90;;;;;;4926600;29;20301;-72
2022/05/09 01:59:16;;;;;;;7.70;3.03;;;9.20;99.90;;;;;;4928517;29;20231;-69
2022/05/09 02:01:51;;;;;;;10.17;3.87;;;9.20;99.90;;;;;;4926801;29;20222;-70
2022/05/09 02:04:17;;;;;;;6.97;3.43;;;9.20;99.90;;;;;;4923428;29;20600;-72
2022/05/09 02:06:42;;;;;;;14.30;3.83;;;9.20;99.90;;;;;;4922879;29;20207;-71
2022/05/09 02:09:09;;;;;;;9.80;4.07;;;9.20;99.90;;;;;;4922816;29;20316;-71
2022/05/09 02:11:34;;;;;;;22.10;7.10;;;9.20;99.90;;;;;;4922050;29;20314;-70
2022/05/09 02:14:01;;;;;;;7.37;3.97;;;9.20;99.90;;;;;;4928513;29;20295;-71
2022/05/09 02:16:26;;;;;;;9.23;3.30;;;9.20;99.90;;;;;;4925829;29;20497;-69
2022/05/09 02:18:52;;;;;;;4.53;2.90;;;9.30;99.90;;;;;;4929311;29;20752;-70
2022/05/09 02:21:17;;;;;;;9.87;3.60;;;9.30;99.90;;;;;;4926499;29;20247;-70
2022/05/09 02:23:43;;;;;;;8.97;4.00;;;9.30;99.90;;;;;;4917734;29;20248;-70
2022/05/09 02:26:09;;;;;;;6.73;3.63;;;9.30;99.90;;;;;;4927062;29;20698;-71
2022/05/09 02:28:35;;;;;;;8.53;4.20;;;9.20;99.90;;;;;;4927919;29;20195;-71
2022/05/09 02:31:10;;;;;;;10.00;3.47;;;9.20;99.90;;;;;;4926918;29;20203;-71
2022/05/09 02:33:36;;;;;;;10.97;4.87;;;9.20;99.90;;;;;;4923259;29;20245;-70
2022/05/09 02:36:01;;;;;;;11.07;4.10;;;9.20;99.90;;;;;;4928869;29;20232;-70
2022/05/09 02:38:28;;;;;;;13.13;3.97;;;9.20;99.90;;;;;;4921951;29;20227;-70
2022/05/09 02:40:54;;;;;;;14.53;4.37;;;9.10;99.90;;;;;;4928795;29;20690;-70
2022/05/09 02:43:20;;;;;;;12.93;4.90;;;9.10;99.90;;;;;;4926471;29;20306;-71
2022/05/09 02:45:46;;;;;;;7.33;3.80;;;9.10;99.90;;;;;;4928106;29;20567;-71
2022/05/09 02:48:12;;;;;;;9.77;4.90;;;9.00;99.90;;;;;;4926303;29;20305;-71
2022/05/09 02:50:38;;;;;;;13.00;4.60;;;9.00;99.90;;;;;;4928213;29;20234;-70
2022/05/09 02:53:04;;;;;;;18.57;7.87;;;9.00;99.90;;;;;;4918375;29;20207;-70
2022/05/09 02:55:33;;;;;;;7.77;3.87;;;9.00;99.90;;;;;;4928143;29;20627;-71
2022/05/09 02:58:00;;;;;;;10.60;4.63;;;9.00;99.90;;;;;;4925965;29;20254;-71
2022/05/09 03:00:29;;;;;;;99.47;65.73;;;9.00;99.90;;;;;;4928099;29;20260;-71
2022/05/09 03:05:41;;;;;;;11.43;4.73;;;8.90;99.90;;;;;;4915384;29;20239;-71
2022/05/09 03:08:09;;;;;;;6.73;4.30;;;8.90;99.90;;;;;;4926255;29;20212;-72
2022/05/09 03:10:35;;;;;;;7.90;4.67;;;8.90;99.90;;;;;;4928064;29;20353;-73
2022/05/09 03:13:03;;;;;;;9.40;4.00;;;8.80;99.90;;;;;;4926468;29;20279;-79
2022/05/09 03:15:32;;;;;;;9.17;4.47;;;8.80;99.90;;;;;;4927440;29;20215;-71
2022/05/09 03:17:57;;;;;;;14.33;5.37;;;8.80;99.90;;;;;;4925632;29;20213;-71
2022/05/09 03:20:24;;;;;;;7.63;4.47;;;8.80;99.90;;;;;;4927735;29;20688;-71
2022/05/09 03:22:49;;;;;;;10.17;5.37;;;8.90;99.90;;;;;;4925954;29;20722;-72
2022/05/09 03:25:16;;;;;;;10.20;5.10;;;8.80;99.90;;;;;;4924842;29;20192;-72
2022/05/09 03:27:42;;;;;;;10.93;5.20;;;8.80;99.90;;;;;;4925804;29;20223;-67
2022/05/09 03:30:08;;;;;;;13.70;5.40;;;8.80;99.90;;;;;;4926240;29;20217;-72
2022/05/09 03:32:35;;;;;;;11.47;5.70;;;8.80;99.90;;;;;;4919612;29;20205;-69
2022/05/09 03:35:02;;;;;;;11.90;5.23;;;8.70;99.90;;;;;;4921678;29;20228;-71
2022/05/09 03:37:27;;;;;;;10.10;4.30;;;8.70;99.90;;;;;;4927835;29;20417;-71
2022/05/09 03:39:53;;;;;;;12.43;6.40;;;8.70;99.90;;;;;;4925557;29;20735;-73
2022/05/09 03:42:18;;;;;;;10.00;5.30;;;8.70;99.90;;;;;;4927334;29;20214;-75
2022/05/09 03:44:44;;;;;;;8.73;4.90;;;8.70;99.90;;;;;;4925373;29;20210;-71
2022/05/09 03:47:09;;;;;;;9.73;5.03;;;8.70;99.90;;;;;;4927411;29;20194;-73
2022/05/09 03:49:35;;;;;;;16.20;5.00;;;8.60;99.90;;;;;;4925459;29;20203;-72
2022/05/09 03:52:00;;;;;;;9.40;5.13;;;8.70;99.90;;;;;;4927521;29;20599;-72
2022/05/09 03:54:26;;;;;;;15.23;5.53;;;8.70;99.90;;;;;;4925662;29;20342;-72
2022/05/09 03:56:51;;;;;;;11.60;5.97;;;8.60;99.90;;;;;;4913843;29;20269;-73
2022/05/09 03:59:17;;;;;;;11.70;5.40;;;8.70;99.90;;;;;;4927704;29;20207;-72
2022/05/09 04:01:42;;;;;;;8.73;5.57;;;8.60;99.90;;;;;;4931111;29;20651;-73
2022/05/09 04:04:08;;;;;;;13.20;6.67;;;8.60;99.90;;;;;;4929349;29;20199;-72
2022/05/09 04:06:34;;;;;;;7.80;4.63;;;8.60;99.90;;;;;;4931928;29;20190;-71
2022/05/09 04:08:59;;;;;;;12.93;4.37;;;8.60;99.90;;;;;;4929445;29;20203;-73
2022/05/09 04:11:26;;;;;;;16.67;6.30;;;8.60;99.90;;;;;;4931267;29;20199;-72
2022/05/09 04:13:51;;;;;;;15.73;7.07;;;8.60;99.90;;;;;;4929180;29;20293;-72
2022/05/09 04:19:01;;;;;;;9.80;5.47;;;8.60;99.90;;;;;;4929870;29;20206;-72
2022/05/09 04:21:27;;;;;;;14.10;6.27;;;8.60;99.90;;;;;;4931266;29;20211;-71
2022/05/09 04:23:58;;;;;;;11.53;6.13;;;8.60;99.90;;;;;;4929309;29;20195;-72
2022/05/09 04:26:24;;;;;;;8.63;6.00;;;8.70;99.90;;;;;;4930952;29;20667;-71
2022/05/09 04:28:50;;;;;;;14.57;6.93;;;8.70;99.90;;;;;;4928871;29;20339;-72
2022/05/09 04:31:15;;;;;;;9.33;6.00;;;8.70;99.90;;;;;;4930916;29;20678;-71
2022/05/09 04:33:41;;;;;;;14.23;5.77;;;8.70;99.90;;;;;;4917709;29;20202;-71
2022/05/09 04:36:07;;;;;;;11.47;5.83;;;8.80;99.90;;;;;;4930916;29;20264;-70
2022/05/09 04:38:34;;;;;;;12.90;6.43;;;8.80;99.90;;;;;;4928693;29;20269;-69
2022/05/09 04:40:59;;;;;;;13.97;8.33;;;8.70;99.90;;;;;;4930943;29;20195;-70
2022/05/09 04:43:31;;;;;;;8.70;5.97;;;8.80;99.90;;;;;;4928882;29;20192;-70
2022/05/09 04:45:59;;;;;;;11.63;7.23;;;8.80;99.90;;;;;;4930709;29;20196;-70
2022/05/09 04:48:24;;;;;;;15.20;8.23;;;8.80;99.90;;;;;;4927377;29;20224;-69
2022/05/09 04:50:50;;;;;;;13.37;7.37;;;8.90;99.90;;;;;;4930377;29;20640;-70
2022/05/09 04:53:16;;;;;;;13.77;7.93;;;8.90;99.90;;;;;;4930547;29;20204;-70
2022/05/09 04:55:42;;;;;;;43.30;34.77;;;8.90;99.90;;;;;;4929398;29;20285;-71
2022/05/09 04:58:14;;;;;;;10.77;6.47;;;8.90;99.90;;;;;;4930348;29;20199;-69
2022/05/09 05:00:40;;;;;;;22.57;14.23;;;8.90;99.90;;;;;;4928667;29;20230;-70
2022/05/09 05:03:06;;;;;;;28.27;19.70;;;9.00;99.90;;;;;;4914369;29;20200;-70
2022/05/09 05:05:31;;;;;;;8.47;6.33;;;9.00;99.90;;;;;;4928433;29;20754;-70
2022/05/09 05:07:57;;;;;;;143.33;129.30;;;9.00;99.90;;;;;;4928910;29;20225;-70
2022/05/09 05:10:23;;;;;;;146.53;110.87;;;9.00;99.90;;;;;;4927658;29;20223;-70
2022/05/09 05:12:48;;;;;;;10.90;6.40;;;9.10;99.90;;;;;;4923651;29;20204;-70
2022/05/09 05:15:15;;;;;;;10.47;6.33;;;9.10;99.90;;;;;;4925178;29;20258;-70
2022/05/09 05:17:40;;;;;;;10.90;6.13;;;9.20;99.90;;;;;;4922442;29;20289;-69
2022/05/09 05:20:12;;;;;;;12.57;7.10;;;9.30;99.90;;;;;;4928214;29;20772;-70
2022/05/09 05:22:42;;;;;;;14.10;8.07;;;9.40;99.90;;;;;;4929208;29;20215;-70
2022/05/09 05:25:10;;;;;;;10.17;6.50;;;9.40;99.90;;;;;;4923963;29;20224;-70
2022/05/09 05:27:36;;;;;;;7.90;7.00;;;9.40;99.90;;;;;;4930028;29;20219;-70
2022/05/09 05:30:03;;;;;;;15.50;7.00;;;9.50;99.90;;;;;;4927005;29;20204;-70
2022/05/09 05:32:34;;;;;;;16.00;7.73;;;9.50;99.90;;;;;;4929736;29;20213;-71
2022/05/09 05:35:00;;;;;;;14.67;7.03;;;9.60;99.90;;;;;;4919570;29;20229;-70
2022/05/09 05:37:25;;;;;;;13.47;6.70;;;9.70;99.90;;;;;;4929803;29;20210;-69
2022/05/09 05:39:51;;;;;;;10.53;6.30;;;9.70;99.90;;;;;;4927780;29;20254;-72
2022/05/09 05:42:18;;;;;;;8.33;6.07;;;9.70;99.90;;;;;;4929558;29;20307;-72
2022/05/09 05:44:47;;;;;;;10.80;6.77;;;9.80;99.90;;;;;;4927686;29;20722;-71
2022/05/09 05:47:14;;;;;;;9.53;6.87;;;9.90;99.90;;;;;;4929506;29;20211;-72
2022/05/09 05:49:41;;;;;;;11.93;7.03;;;10.00;99.90;;;;;;4927716;29;20218;-72
2022/05/09 05:52:07;;;;;;;12.10;7.73;;;10.10;99.90;;;;;;4929466;29;20206;-71
2022/05/09 05:54:39;;;;;;;12.50;6.77;;;10.20;99.90;;;;;;4927631;29;20239;-71
2022/05/09 05:57:05;;;;;;;15.27;6.53;;;10.20;99.90;;;;;;4928371;29;20198;-72
2022/05/09 05:59:31;;;;;;;11.63;6.20;;;10.20;99.90;;;;;;4927174;29;20217;-71
2022/05/09 06:01:56;;;;;;;8.47;5.97;;;10.40;99.90;;;;;;4929012;29;20212;-73
2022/05/09 06:04:22;;;;;;;8.70;7.37;;;10.40;99.90;;;;;;4927489;29;20198;-72
2022/05/09 06:06:48;;;;;;;10.10;6.43;;;10.50;99.90;;;;;;4929460;29;20569;-72
2022/05/09 06:09:14;;;;;;;8.47;6.20;;;10.60;99.90;;;;;;4927372;29;20676;-70
2022/05/09 06:11:40;;;;;;;8.37;6.53;;;10.70;99.90;;;;;;4928980;29;20261;-71
2022/05/09 06:14:07;;;;;;;12.80;7.10;;;10.70;99.90;;;;;;4927151;29;20312;-72
2022/05/09 06:16:34;;;;;;;9.93;6.90;;;10.80;99.90;;;;;;4928866;29;20617;-72
2022/05/09 06:19:00;;;;;;;13.80;7.67;;;10.80;99.90;;;;;;4927329;29;20325;-72
2022/05/09 06:21:29;;;;;;;9.97;6.37;;;10.90;99.90;;;;;;4928278;29;20697;-72
2022/05/09 06:23:55;;;;;;;10.07;6.80;;;11.00;99.90;;;;;;4927039;29;20638;-71
2022/05/09 06:26:22;;;;;;;9.47;6.53;;;11.00;99.90;;;;;;4929016;29;20241;-71
2022/05/09 06:28:48;;;;;;;13.33;7.60;;;11.10;99.90;;;;;;4926951;29;20194;-72
2022/05/09 06:31:13;;;;;;;12.67;7.40;;;11.20;99.90;;;;;;4928725;29;20191;-71
2022/05/09 06:33:38;;;;;;;9.80;7.03;;;11.30;99.90;;;;;;4926848;29;20214;-71
2022/05/09 06:36:05;;;;;;;14.37;6.77;;;11.30;99.90;;;;;;4928725;29;20226;-73
2022/05/09 06:38:31;;;;;;;10.47;6.47;;;11.40;99.90;;;;;;4926749;29;20685;-73
2022/05/09 06:41:00;;;;;;;11.77;9.10;;;11.50;99.90;;;;;;4928923;29;20203;-72
2022/05/09 06:43:26;;;;;;;28.07;10.13;;;11.60;99.90;;;;;;4926599;29;20201;-72
2022/05/09 06:45:52;;;;;;;10.73;7.07;;;11.70;99.90;;;;;;4928479;29;20318;-73
2022/05/09 06:48:18;;;;;;;124.87;115.40;;;11.70;99.90;;;;;;4928036;29;20199;-73
2022/05/09 06:50:44;;;;;;;17.73;7.90;;;11.80;99.90;;;;;;4928320;29;20240;-72
2022/05/09 06:53:11;;;;;;;256.73;234.77;;;11.80;99.90;;;;;;4924222;29;20202;-73
2022/05/09 06:55:37;;;;;;;12.07;6.67;;;12.00;99.90;;;;;;4926278;29;20214;-71
2022/05/09 06:58:11;;;;;;;9.77;5.83;;;12.00;99.90;;;;;;4928016;29;20203;-74
2022/05/09 07:00:37;;;;;;;10.60;6.10;;;12.10;99.90;;;;;;4926339;29;20748;-72
2022/05/09 07:03:04;;;;;;;10.80;7.00;;;12.10;99.90;;;;;;4909528;29;20254;-72
2022/05/09 07:05:29;;;;;;;10.20;6.37;;;12.20;99.90;;;;;;4926117;29;20203;-72
2022/05/09 07:07:55;;;;;;;7.50;6.20;;;12.30;99.90;;;;;;4928136;29;20724;-72
2022/05/09 07:10:22;;;;;;;7.40;5.40;;;12.40;99.90;;;;;;4926357;29;20726;-71
2022/05/09 07:12:50;;;;;;;6.67;5.97;;;12.60;99.90;;;;;;4909644;29;20258;-69
2022/05/09 07:15:25;;;;;;;11.27;5.87;;;12.70;99.90;;;;;;4926241;29;20202;-71
2022/05/09 07:17:51;;;;;;;9.50;6.50;;;12.70;99.90;;;;;;4920796;29;20554;-72
2022/05/09 07:20:18;;;;;;;8.63;5.70;;;12.80;99.90;;;;;;4925705;29;20725;-71
2022/05/09 07:22:44;;;;;;;10.20;6.70;;;12.80;99.90;;;;;;4927048;29;20224;-71
2022/05/09 07:25:14;;;;;;;12.37;6.57;;;12.90;99.90;;;;;;4925839;29;20246;-70
2022/05/09 07:27:42;;;;;;;9.57;6.17;;;12.90;99.90;;;;;;4927462;29;20218;-70
2022/05/09 07:30:10;;;;;;;7.67;5.77;;;13.00;99.90;;;;;;4925727;29;20234;-70
2022/05/09 07:32:36;;;;;;;10.57;7.57;;;13.00;99.90;;;;;;4927571;29;20253;-70
2022/05/09 07:35:03;;;;;;;11.67;6.93;;;13.10;99.90;;;;;;4925855;29;20222;-71
2022/05/09 07:37:29;;;;;;;11.20;7.17;;;13.20;99.90;;;;;;4927820;29;20285;-71
2022/05/09 07:39:54;;;;;;;21.57;7.67;;;13.30;99.90;;;;;;4925627;29;20318;-71
2022/05/09 07:42:20;;;;;;;11.37;6.80;;;13.40;99.90;;;;;;4927443;29;20219;-70
2022/05/09 07:44:45;;;;;;;13.67;6.97;;;13.40;99.90;;;;;;4925327;29;20195;-70
2022/05/09 07:47:11;;;;;;;11.00;6.70;;;13.60;99.90;;;;;;4927468;29;20191;-70
2022/05/09 07:49:36;;;;;;;11.10;6.20;;;13.70;99.90;;;;;;4925608;29;20207;-71
2022/05/09 07:52:05;;;;;;;15.33;7.70;;;13.70;99.90;;;;;;4914821;29;20282;-72
2022/05/09 07:54:31;;;;;;;13.47;7.23;;;13.70;99.90;;;;;;4925689;29;20230;-71
2022/05/09 07:56:56;;;;;;;10.20;7.20;;;13.80;99.90;;;;;;4927292;29;20554;-72
2022/05/09 07:59:21;;;;;;;20.90;8.20;;;13.80;99.90;;;;;;4925221;29;20226;-71
2022/05/09 08:01:47;;;;;;;15.17;6.63;;;13.90;99.90;;;;;;4927411;29;20214;-70
2022/05/09 08:04:12;;;;;;;16.53;7.27;;;14.00;99.90;;;;;;4914585;29;20199;-72
2022/05/09 08:06:38;;;;;;;13.00;7.97;;;14.00;99.90;;;;;;4927782;29;20559;-70
2022/05/09 08:09:04;;;;;;;13.23;8.50;;;14.00;99.90;;;;;;4925538;29;20674;-72
2022/05/09 08:11:30;;;;;;;12.83;7.03;;;14.10;99.90;;;;;;4927404;29;20658;-72
2022/05/09 08:13:55;;;;;;;11.80;8.00;;;14.20;99.90;;;;;;4925578;29;20262;-72
2022/05/09 08:16:21;;;;;;;9.53;7.10;;;14.30;99.90;;;;;;4926926;29;20198;-69
2022/05/09 08:18:47;;;;;;;10.13;7.17;;;14.40;99.90;;;;;;4925692;29;20601;-70
2022/05/09 08:21:13;;;;;;;14.77;6.43;;;14.40;99.90;;;;;;4927565;29;20566;-71
2022/05/09 08:23:39;;;;;;;12.63;6.90;;;14.50;99.90;;;;;;4925719;29;20247;-71
2022/05/09 08:26:04;;;;;;;13.20;6.97;;;14.60;99.90;;;;;;4927378;29;20242;-71
2022/05/09 08:28:31;;;;;;;9.67;5.53;;;14.60;99.20;;;;;;4925675;29;20667;-72
2022/05/09 08:30:57;;;;;;;14.80;7.20;;;14.70;99.20;;;;;;4927547;29;20245;-73
2022/05/09 08:33:25;;;;;;;8.07;6.07;;;14.70;98.60;;;;;;4925583;29;20195;-73
2022/05/09 08:35:52;;;;;;;10.60;6.63;;;14.70;99.20;;;;;;4926806;29;20239;-71
2022/05/09 08:38:20;;;;;;;9.20;5.50;;;14.80;99.50;;;;;;4915913;29;20249;-69
2022/05/09 08:40:54;;;;;;;10.10;6.53;;;14.90;98.90;;;;;;4914597;29;20246;-72
2022/05/09 08:43:45;;;;;;;8.40;5.50;;;15.10;98.90;;;;;;4925193;29;20249;-72
2022/05/09 08:46:30;;;;;;;8.83;6.10;;;15.20;98.30;;;;;;4928105;29;20183;-74
2022/05/09 08:49:11;;;;;;;7.57;5.90;;;15.30;98.20;;;;;;4927341;29;20367;-73
2022/05/09 08:51:52;;;;;;;13.33;6.57;;;15.50;98.00;;;;;;4929171;29;20194;-71
2022/05/09 08:54:21;;;;;;;8.00;6.63;;;15.50;97.40;;;;;;4927424;29;20285;-72
2022/05/09 08:56:51;;;;;;;9.03;5.80;;;15.40;97.40;;;;;;4929867;29;20510;-70
2022/05/09 08:59:26;;;;;;;8.43;5.30;;;15.60;98.00;;;;;;4928372;29;20745;-71
2022/05/09 09:01:58;;;;;;;11.53;8.70;;;15.70;97.20;;;;;;4928479;29;20210;-75
2022/05/09 09:04:30;;;;;;;7.17;5.23;;;15.90;96.60;;;;;;4926976;29;20225;-69
2022/05/09 09:07:25;;;;;;;16.03;9.40;;;15.90;96.60;;;;;;4929836;29;20797;-73
2022/05/09 09:09:56;;;;;;;11.17;6.47;;;16.00;96.40;;;;;;4928170;29;20649;-70
2022/05/09 09:12:49;;;;;;;21.27;19.27;;;16.10;96.10;;;;;;4929746;29;20191;-73
2022/05/09 09:15:54;;;;;;;8.60;4.57;;;16.30;94.50;;;;;;4926068;29;20279;-72
2022/05/09 09:19:05;;;;;;;12.07;5.70;;;16.40;92.10;;;;;;4925972;29;20741;-70
2022/05/09 09:21:43;;;;;;;7.23;4.57;;;16.50;91.90;;;;;;4929763;29;20867;-74
2022/05/09 09:24:31;;;;;;;5.47;3.50;;;16.60;91.20;;;;;;4926191;29;20678;-70
2022/05/09 09:27:11;;;;;;;8.90;3.67;;;16.60;90.00;;;;;;4930216;29;20218;-74
2022/05/09 09:29:51;;;;;;;5.47;3.37;;;16.80;91.60;;;;;;4924865;29;20250;-68
2022/05/09 09:32:19;;;;;;;4.90;3.20;;;16.80;86.10;;;;;;4918306;29;20672;-74
2022/05/09 09:35:03;;;;;;;8.43;3.23;;;16.80;85.20;;;;;;4927022;29;20243;-75
2022/05/09 09:37:59;;;;;;;9.73;3.30;;;16.90;85.50;;;;;;4928057;29;20199;-73
2022/05/09 09:40:25;;;;;;;3.83;2.80;;;17.00;85.10;;;;;;4925518;29;20203;-74
2022/05/09 09:42:55;;;;;;;5.10;3.30;;;17.40;84.60;;;;;;4929739;29;20252;-73
2022/05/09 09:45:31;;;;;;;7.53;2.57;;;17.50;82.80;;;;;;4927905;29;20354;-73
2022/05/09 09:48:18;;;;;;;4.97;3.10;;;17.60;80.50;;;;;;4928763;29;21356;-80
2022/05/09 09:51:07;;;;;;;10.87;3.70;;;18.20;79.40;;;;;;4929095;29;20205;-75
2022/05/09 09:53:57;;;;;;;7.70;3.63;;;18.10;81.40;;;;;;4914493;29;20683;-74
2022/05/09 09:56:22;;;;;;;5.43;3.30;;;17.90;78.00;;;;;;4928410;29;20182;-69
2022/05/09 09:58:50;;;;;;;12.87;5.33;;;17.70;78.50;;;;;;4926449;29;20834;-68
2022/05/09 10:01:32;;;;;;;11.10;4.83;;;17.70;78.30;;;;;;4928565;29;20209;-73
2022/05/09 10:04:11;;;;;;;12.57;5.23;;;17.80;78.30;;;;;;4926065;29;20204;-78
2022/05/09 10:07:01;;;;;;;8.33;3.67;;;18.00;76.10;;;;;;4912468;29;20167;-79
2022/05/09 10:09:32;;;;;;;8.80;3.60;;;18.00;76.70;;;;;;4927336;29;20213;-80
2022/05/09 10:12:18;;;;;;;11.77;10.47;;;18.30;78.70;;;;;;4916445;29;20185;-76
2022/05/09 10:14:44;;;;;;;13.70;4.93;;;18.20;76.70;;;;;;4926943;29;20212;-76
2022/05/09 10:17:25;;;;;;;14.93;5.70;;;18.20;73.20;;;;;;4929270;29;20199;-73
2022/05/09 10:19:53;;;;;;;12.93;4.43;;;18.20;71.10;;;;;;4926955;29;20239;-75
2022/05/09 10:25:22;;;;;;;14.53;4.63;;;18.30;71.10;;;;;;4927226;29;20209;-72
2022/05/09 10:28:03;;;;;;;7.53;5.03;;;18.40;70.30;;;;;;4927780;29;20209;-76
2022/05/09 10:30:35;;;;;;;23.10;20.73;;;18.30;72.10;;;;;;4926177;29;20234;-73
2022/05/09 10:33:16;;;;;;;11.93;4.77;;;18.40;72.00;;;;;;4928367;29;20252;-75
2022/05/09 10:35:47;;;;;;;17.70;16.07;;;18.30;71.60;;;;;;4927090;29;20229;-73
2022/05/09 10:38:35;;;;;;;17.47;6.40;;;18.40;70.00;;;;;;4927301;29;20186;-74
2022/05/09 10:41:09;;;;;;;36.47;33.07;;;18.60;69.70;;;;;;4928187;29;20678;-72
2022/05/09 10:43:47;;;;;;;4.10;3.57;;;18.60;71.80;;;;;;4925753;29;20184;-77
2022/05/09 10:46:14;;;;;;;5.70;3.30;;;18.80;72.00;;;;;;4926558;29;20272;-72
2022/05/09 10:48:53;;;;;;;15.37;6.23;;;19.20;70.50;;;;;;4927348;29;20210;-75
2022/05/09 10:51:33;;;;;;;24.63;15.03;;;19.40;71.20;;;;;;4930862;29;20198;-72
2022/05/09 10:54:10;;;;;;;22.40;6.00;;;19.60;68.20;;;;;;4914934;29;20234;-73
2022/05/09 10:56:44;;;;;;;8.77;3.13;;;19.80;69.20;;;;;;4936201;29;20198;-74
2022/05/09 10:59:18;;;;;;;6.13;3.20;;;20.00;66.30;;;;;;4925257;29;20217;-72
2022/05/09 11:02:00;;;;;;;7.83;3.00;;;20.00;66.10;;;;;;4926833;29;20225;-72
2022/05/09 11:04:29;;;;;;;6.63;2.97;;;20.30;64.20;;;;;;4928604;29;20222;-72
2022/05/09 11:07:01;;;;;;;3.70;2.80;;;20.90;63.60;;;;;;4925978;29;20207;-73
2022/05/09 11:09:56;;;;;;;8.50;3.58;;;21.50;62.10;;;;;;4928386;29;20190;-72
2022/05/09 11:12:45;;;;;;;6.10;2.65;;;21.70;62.60;;;;;;4921234;29;20246;-72
2022/05/09 11:15:37;;;;;;;6.18;3.17;;;22.30;60.90;;;;;;4920319;29;20256;-72
2022/05/09 11:18:22;;;;;;;7.13;2.92;;;22.60;60.20;;;;;;4924893;29;20201;-73
2022/05/09 11:21:10;;;;;;;6.10;3.35;;;22.40;57.40;;;;;;4923136;29;20301;-70
2022/05/09 11:24:03;;;;;;;3.17;2.88;;;22.50;56.80;;;;;;4923700;29;20193;-72
2022/05/09 11:26:56;;;;;;;5.43;3.15;;;22.70;72.70;;;;;;4924564;29;20543;-70
2022/05/09 11:29:39;;;;;;;8.07;3.00;;;21.80;75.30;;;;;;4921553;29;20191;-76
2022/05/09 11:32:23;;;;;;;4.15;2.97;;;20.90;76.60;;;;;;4924887;29;20230;-71
2022/05/09 11:35:17;;;;;;;2.70;2.40;;;21.60;61.70;;;;;;4927438;29;20662;-75
2022/05/09 11:38:03;;;;;;;3.42;2.58;;;22.20;56.10;;;;;;4921731;29;20223;-74
2022/05/09 11:40:53;;;;;;;7.10;3.30;;;23.60;51.60;;;;;;4922174;29;20281;-75
2022/05/09 11:43:40;;;;;;;3.88;3.53;;;23.60;53.40;;;;;;4926219;29;20607;-77
2022/05/09 11:46:34;;;;;;;5.53;3.47;;;23.50;52.70;;;;;;4926685;29;20187;-77
2022/05/09 11:49:19;;;;;;;5.30;3.30;;;23.00;52.00;;;;;;4926120;29;20190;-74
2022/05/09 11:51:48;;;;;;;5.00;3.17;;;23.80;52.00;;;;;;4925452;29;20211;-74
2022/05/09 11:54:19;;;;;;;2.88;2.33;;;25.30;50.40;;;;;;4927165;29;20229;-72
2022/05/09 11:56:49;;;;;;;3.13;2.80;;;26.70;43.20;;;;;;4923544;29;20214;-73
2022/05/09 11:59:24;;;;;;;3.95;2.75;;;26.70;45.30;;;;;;4926904;29;20217;-73
2022/05/09 12:01:58;;;;;;;7.43;3.28;;;26.30;46.50;;;;;;4924655;29;20320;-73
2022/05/09 12:04:45;;;;;;;3.38;3.03;;;26.20;43.00;;;;;;4927446;29;20637;-76
2022/05/09 12:07:28;;;;;;;4.95;3.15;;;25.50;43.80;;;;;;4925465;29;20678;-74
2022/05/09 12:10:15;;;;;;;3.22;2.63;;;26.20;42.30;;;;;;4927629;29;20670;-74
2022/05/09 12:12:56;;;;;;;4.53;2.75;;;26.30;43.60;;;;;;4921538;29;20297;-74
2022/05/09 12:15:21;;;;;;;5.22;3.20;;;25.90;43.80;;;;;;4927197;29;20210;-75
2022/05/09 12:18:07;;;;;;;7.03;3.30;;;26.00;44.00;;;;;;4924536;29;20211;-74
2022/05/09 12:20:36;;;;;;;5.55;3.22;;;25.70;43.70;;;;;;4916126;29;20253;-74
2022/05/09 12:23:09;;;;;;;4.32;3.17;;;26.60;43.50;;;;;;4929004;29;20499;-74
2022/05/09 12:25:44;;;;;;;4.32;2.75;;;26.70;42.30;;;;;;4926087;29;20187;-74
2022/05/09 12:28:23;;;;;;;5.82;3.30;;;26.30;43.90;;;;;;4929298;29;20252;-74
2022/05/09 12:30:52;;;;;;;9.32;2.78;;;26.40;42.10;;;;;;4929799;29;20240;-73
2022/05/09 12:33:45;;;;;;;5.68;3.10;;;27.40;41.40;;;;;;4919857;29;20286;-74
2022/05/09 12:36:15;;;;;;;4.03;3.15;;;29.70;37.90;;;;;;4927709;29;20230;-74
2022/05/09 12:38:43;;;;;;;2.75;2.50;;;29.40;39.00;;;;;;4930263;29;20183;-73
2022/05/09 12:41:19;;;;;;;4.97;2.85;;;29.30;36.60;;;;;;4927690;29;20281;-70
2022/05/09 12:44:00;;;;;;;4.70;2.85;;;28.80;36.50;;;;;;4929874;29;20230;-70
2022/05/09 12:46:30;;;;;;;3.80;2.78;;;28.70;38.70;;;;;;4927959;29;20305;-75
2022/05/09 12:48:59;;;;;;;3.40;2.75;;;28.30;36.90;;;;;;4930037;29;20186;-74
2022/05/09 12:51:26;;;;;;;3.67;2.63;;;29.00;37.40;;;;;;4928662;29;20202;-75
2022/05/09 12:53:52;;;;;;;5.13;3.15;;;30.50;35.40;;;;;;4930690;29;20199;-74
2022/05/09 12:56:21;;;;;;;4.95;3.08;;;30.70;35.20;;;;;;4928310;29;20302;-74
2022/05/09 12:58:57;;;;;;;5.30;3.00;;;29.60;35.10;;;;;;4931206;29;20191;-70
2022/05/09 13:01:26;;;;;;;6.55;2.70;;;29.80;35.10;;;;;;4926191;29;20226;-70
2022/05/09 13:03:56;;;;;;;7.95;3.13;;;29.30;35.50;;;;;;4930221;29;20190;-71
2022/05/09 13:06:25;;;;;;;4.45;2.58;;;29.90;33.80;;;;;;4927612;29;20207;-70
2022/05/09 13:08:51;;;;;;;2.83;2.55;;;30.80;33.30;;;;;;4929481;29;20186;-69
2022/05/09 13:11:23;;;;;;;3.22;2.70;;;31.40;31.30;;;;;;4927757;29;20199;-70
2022/05/09 13:14:17;;;;;;;4.68;3.00;;;31.60;32.00;;;;;;4929835;29;20809;-71
2022/05/09 13:16:55;;;;;;;3.85;2.45;;;31.90;32.10;;;;;;4921094;29;20210;-71
2022/05/09 13:19:21;;;;;;;5.22;2.50;;;32.00;31.80;;;;;;4929917;29;20960;-69